Terminal Aerodrome Forecast
Issued by NWS Northern Indiana

Home | Current Version | Previous Version | Text Only | Print | Product List | Glossary On
Versions: 1 2 3 4 5 6 7 8 9 10 11 12 13
000
FTUS43 KIWX 291700
TAFFWA
TAF
KFWA 291720Z 2918/3018 20013G21KT P6SM VCTS BKN050CB
     FM292300 19010KT P6SM SCT035 BKN100
      TEMPO 3010/3013 5SM BR BKN035
     FM301300 24010KT 6SM -SHRA BKN035 OVC050=

USA.gov is the U.S. government's official web portal to all federal, state and local government web resources and services.